createdAt,value
2018-09-29T00:01:21.686Z,2.60
2018-09-29T00:03:49.110Z,3.20
2018-09-29T00:06:17.220Z,3.17
2018-09-29T00:08:44.639Z,3.37
2018-09-29T00:11:11.999Z,2.60
2018-09-29T00:13:39.455Z,3.37
2018-09-29T00:16:07.223Z,4.20
2018-09-29T00:18:34.693Z,2.73
2018-09-29T00:21:02.074Z,2.73
2018-09-29T00:23:30.281Z,2.67
2018-09-29T00:25:57.668Z,2.90
2018-09-29T00:28:25.051Z,2.83
2018-09-29T00:30:52.478Z,2.70
2018-09-29T00:33:20.008Z,2.90
2018-09-29T00:35:47.529Z,3.20
2018-09-29T00:38:14.909Z,2.80
2018-09-29T00:40:42.278Z,3.37
2018-09-29T00:43:09.729Z,2.40
2018-09-29T00:45:37.149Z,2.60
2018-09-29T00:48:05.618Z,3.20
2018-09-29T00:50:33.114Z,2.43
2018-09-29T00:53:00.488Z,3.00
2018-09-29T00:55:27.925Z,3.50
2018-09-29T00:57:55.405Z,3.10
2018-09-29T01:00:22.829Z,2.90
2018-09-29T01:02:50.162Z,3.23
2018-09-29T01:05:17.655Z,3.63
2018-09-29T01:07:45.010Z,3.20
2018-09-29T01:10:12.435Z,3.00
2018-09-29T01:12:39.865Z,3.20
2018-09-29T01:15:07.876Z,3.63
2018-09-29T01:17:35.250Z,3.03
2018-09-29T01:20:02.830Z,3.03
2018-09-29T01:22:30.786Z,2.80
2018-09-29T01:24:58.816Z,3.40
2018-09-29T01:27:26.181Z,3.30
2018-09-29T01:29:53.607Z,3.40
2018-09-29T01:32:21.545Z,3.53
2018-09-29T01:34:51.412Z,2.90
2018-09-29T01:37:18.772Z,2.90
2018-09-29T01:39:46.241Z,3.37
2018-09-29T01:42:13.632Z,3.67
2018-09-29T01:44:41.382Z,3.97
2018-09-29T01:47:08.782Z,3.93
2018-09-29T01:49:36.197Z,3.30
2018-09-29T01:52:03.782Z,4.20
2018-09-29T01:54:31.533Z,4.17
2018-09-29T01:56:58.956Z,4.33
2018-09-29T01:59:26.371Z,4.63
2018-09-29T02:01:53.743Z,4.90
2018-09-29T02:04:21.150Z,4.87
2018-09-29T02:06:48.785Z,4.53
2018-09-29T02:09:16.135Z,4.80
2018-09-29T02:11:43.482Z,4.13
2018-09-29T02:14:11.513Z,4.60
2018-09-29T02:16:38.940Z,4.33
2018-09-29T02:19:06.419Z,3.37
2018-09-29T02:21:33.770Z,3.00
2018-09-29T02:24:01.173Z,3.20
2018-09-29T02:26:28.555Z,2.40
2018-09-29T02:28:56.413Z,2.80
2018-09-29T02:31:23.752Z,2.47
2018-09-29T02:33:51.113Z,2.60
2018-09-29T02:36:18.571Z,2.80
2018-09-29T02:38:45.977Z,3.20
2018-09-29T02:41:14.153Z,2.60
2018-09-29T02:43:41.586Z,2.60
2018-09-29T02:46:08.894Z,2.93
2018-09-29T02:48:36.299Z,2.60
2018-09-29T02:51:03.807Z,2.63
2018-09-29T02:53:31.282Z,2.40
2018-09-29T02:55:58.646Z,2.40
2018-09-29T02:58:26.020Z,3.30
2018-09-29T03:00:53.383Z,2.60
2018-09-29T03:03:20.766Z,2.87
2018-09-29T03:05:48.267Z,2.50
2018-09-29T03:08:15.805Z,1.90
2018-09-29T03:10:43.258Z,2.03
2018-09-29T03:13:10.585Z,2.50
2018-09-29T03:15:38.030Z,2.30
2018-09-29T03:18:05.387Z,2.43
2018-09-29T03:20:33.313Z,3.97
2018-09-29T03:23:00.723Z,3.20
2018-09-29T03:25:28.145Z,2.80
2018-09-29T03:27:55.492Z,2.67
2018-09-29T03:30:22.909Z,2.97
2018-09-29T03:32:50.361Z,3.00
2018-09-29T03:35:17.763Z,2.40
2018-09-29T03:37:45.150Z,3.07
2018-09-29T03:40:12.722Z,2.33
2018-09-29T03:42:40.067Z,3.23
2018-09-29T03:45:07.522Z,2.60
2018-09-29T03:47:34.942Z,2.47
2018-09-29T03:50:02.536Z,2.60
2018-09-29T03:52:29.963Z,2.17
2018-09-29T03:54:57.412Z,2.50
2018-09-29T03:57:24.821Z,2.43
2018-09-29T03:59:52.385Z,2.73
2018-09-29T04:02:19.735Z,2.80
2018-09-29T04:04:47.110Z,2.77
2018-09-29T04:07:14.453Z,2.40
2018-09-29T04:09:41.832Z,2.63
2018-09-29T04:12:09.200Z,2.27
2018-09-29T04:14:36.575Z,2.80
2018-09-29T04:17:04.434Z,2.80
2018-09-29T04:19:31.878Z,3.70
2018-09-29T04:21:59.232Z,2.27
2018-09-29T04:24:26.645Z,2.53
2018-09-29T04:26:54.070Z,2.40
2018-09-29T04:29:21.518Z,3.17
2018-09-29T04:31:48.932Z,2.73
2018-09-29T04:34:16.365Z,2.70
2018-09-29T04:36:43.822Z,3.90
2018-09-29T04:39:12.634Z,2.57
2018-09-29T04:41:40.130Z,2.63
2018-09-29T04:44:08.236Z,2.77
2018-09-29T04:46:35.618Z,2.07
2018-09-29T04:49:03.150Z,3.20
2018-09-29T04:51:30.523Z,2.43
2018-09-29T04:53:57.907Z,2.33
2018-09-29T04:56:25.427Z,2.90
2018-09-29T04:58:52.849Z,2.93
2018-09-29T05:01:20.277Z,2.10
2018-09-29T05:03:47.740Z,2.73
2018-09-29T05:06:15.206Z,2.80
2018-09-29T05:08:42.633Z,2.40
2018-09-29T05:11:10.106Z,2.50
2018-09-29T05:13:38.542Z,2.50
2018-09-29T05:16:06.874Z,2.93
2018-09-29T05:18:34.627Z,2.23
2018-09-29T05:21:02.045Z,2.97
2018-09-29T05:23:29.441Z,2.40
2018-09-29T05:25:56.867Z,2.00
2018-09-29T05:28:24.279Z,3.50
2018-09-29T05:30:51.713Z,3.07
2018-09-29T05:33:19.112Z,3.23
2018-09-29T05:35:46.582Z,3.47
2018-09-29T05:38:13.949Z,3.40
2018-09-29T05:40:42.049Z,3.80
2018-09-29T05:43:09.469Z,3.20
2018-09-29T05:45:36.885Z,2.93
2018-09-29T05:48:04.430Z,3.60
2018-09-29T05:50:31.751Z,3.80
2018-09-29T05:52:59.134Z,10.27
2018-09-29T05:55:27.452Z,5.50
2018-09-29T05:57:54.899Z,3.87
2018-09-29T06:00:22.426Z,3.77
2018-09-29T06:02:49.813Z,3.40
2018-09-29T06:05:17.316Z,3.33
2018-09-29T06:07:44.672Z,2.83
2018-09-29T06:10:12.229Z,2.70
2018-09-29T06:12:40.323Z,2.90
2018-09-29T06:15:08.516Z,3.20
2018-09-29T06:17:35.854Z,3.57
2018-09-29T06:20:03.552Z,4.00
2018-09-29T06:22:31.096Z,4.13
2018-09-29T06:24:58.518Z,3.90
2018-09-29T06:27:25.899Z,3.70
2018-09-29T06:29:53.351Z,6.37
2018-09-29T06:32:20.768Z,5.00
2018-09-29T06:34:48.174Z,3.87
2018-09-29T06:37:15.678Z,4.87
2018-09-29T06:39:43.087Z,4.57
2018-09-29T06:42:10.583Z,4.17
2018-09-29T06:44:38.056Z,5.20
2018-09-29T06:47:05.691Z,3.40
2018-09-29T06:49:33.085Z,4.83
2018-09-29T06:52:01.430Z,3.90
2018-09-29T06:54:28.845Z,3.90
2018-09-29T06:56:56.241Z,3.37
2018-09-29T06:59:23.631Z,3.50
2018-09-29T07:01:51.081Z,3.40
2018-09-29T07:04:18.638Z,3.40
2018-09-29T07:06:46.091Z,4.10
2018-09-29T07:09:13.464Z,3.57
2018-09-29T07:11:41.462Z,3.23
2018-09-29T07:14:09.771Z,4.70
2018-09-29T07:16:37.205Z,4.30
2018-09-29T07:19:04.762Z,3.57
2018-09-29T07:21:32.305Z,3.70
2018-09-29T07:23:59.648Z,4.03
2018-09-29T07:26:27.014Z,6.37
2018-09-29T07:28:54.680Z,7.57
2018-09-29T07:31:22.241Z,5.30
2018-09-29T07:33:49.593Z,4.83
2018-09-29T07:36:17.177Z,4.20
2018-09-29T07:38:44.818Z,3.90
2018-09-29T07:41:12.315Z,3.10
2018-09-29T07:43:39.733Z,3.00
2018-09-29T07:46:07.257Z,3.37
2018-09-29T07:48:34.601Z,2.80
2018-09-29T07:51:01.928Z,3.33
2018-09-29T07:53:29.262Z,2.90
2018-09-29T07:55:56.695Z,3.13
2018-09-29T07:58:24.055Z,3.00
2018-09-29T08:00:51.560Z,3.00
2018-09-29T08:03:19.802Z,3.47
2018-09-29T08:05:47.186Z,3.27
2018-09-29T08:08:14.644Z,2.80
2018-09-29T08:10:42.094Z,3.20
2018-09-29T08:13:09.542Z,8.17
2018-09-29T08:15:36.967Z,23.87
2018-09-29T08:18:04.464Z,15.57
2018-09-29T08:20:32.483Z,9.73
2018-09-29T08:22:59.869Z,7.00
2018-09-29T08:25:27.274Z,6.03
2018-09-29T08:27:54.699Z,3.70
2018-09-29T08:30:22.085Z,3.30
2018-09-29T08:32:49.499Z,3.83
2018-09-29T08:35:16.888Z,4.20
2018-09-29T08:37:45.164Z,3.30
2018-09-29T08:40:12.477Z,3.30
2018-09-29T08:42:39.865Z,3.27
2018-09-29T08:45:07.262Z,3.30
2018-09-29T08:47:34.637Z,2.50
2018-09-29T08:50:02.388Z,2.97
2018-09-29T08:52:29.909Z,2.93
2018-09-29T08:54:57.284Z,2.90
2018-09-29T08:57:24.804Z,2.63
2018-09-29T08:59:52.181Z,2.90
2018-09-29T09:02:19.568Z,2.67
2018-09-29T09:04:47.116Z,3.10
2018-09-29T09:07:14.514Z,3.00
2018-09-29T09:09:41.871Z,2.50
2018-09-29T09:12:10.039Z,2.67
2018-09-29T09:14:37.462Z,3.07
2018-09-29T09:17:04.881Z,2.33
2018-09-29T09:19:32.398Z,2.23
2018-09-29T09:21:59.815Z,2.20
2018-09-29T09:24:27.251Z,2.13
2018-09-29T09:26:55.286Z,1.50
2018-09-29T09:29:22.819Z,1.70
2018-09-29T09:31:50.202Z,2.10
2018-09-29T09:34:17.676Z,1.47
2018-09-29T09:36:45.133Z,1.83
2018-09-29T09:39:12.618Z,1.47
2018-09-29T09:41:40.277Z,1.60
2018-09-29T09:44:07.793Z,1.20
2018-09-29T09:46:35.254Z,2.17
2018-09-29T09:49:02.637Z,1.43
2018-09-29T09:51:30.053Z,1.40
2018-09-29T09:53:57.484Z,2.10
2018-09-29T09:56:24.883Z,2.70
2018-09-29T09:58:53.210Z,2.03
2018-09-29T10:01:32.345Z,1.60
2018-09-29T10:03:59.893Z,1.87
2018-09-29T10:06:27.389Z,1.50
2018-09-29T10:08:54.828Z,1.30
2018-09-29T10:11:22.335Z,1.00
2018-09-29T10:13:49.734Z,1.63
2018-09-29T10:16:17.340Z,1.90
2018-09-29T10:18:44.774Z,1.23
2018-09-29T10:21:12.190Z,1.37
2018-09-29T10:23:39.653Z,1.03
2018-09-29T10:26:07.225Z,1.57
2018-09-29T10:28:34.659Z,5.20
2018-09-29T10:31:02.167Z,16.63
2018-09-29T10:33:29.678Z,10.37
2018-09-29T10:35:57.048Z,4.53
2018-09-29T10:38:24.443Z,2.83
2018-09-29T10:40:51.810Z,2.33
2018-09-29T10:43:19.193Z,1.67
2018-09-29T10:45:47.771Z,1.80
2018-09-29T10:48:16.094Z,1.23
2018-09-29T10:50:43.478Z,1.50
2018-09-29T10:53:10.839Z,1.20
2018-09-29T10:55:38.265Z,1.13
2018-09-29T10:58:05.677Z,1.73
2018-09-29T11:00:33.345Z,1.73
2018-09-29T11:03:00.814Z,12.30
2018-09-29T11:05:28.328Z,5.83
2018-09-29T11:07:56.046Z,5.90
2018-09-29T11:10:23.514Z,3.03
2018-09-29T11:12:50.882Z,1.93
2018-09-29T11:15:18.268Z,2.03
2018-09-29T11:17:45.713Z,1.53
2018-09-29T11:20:13.062Z,1.50
2018-09-29T11:22:41.035Z,1.50
2018-09-29T11:25:08.454Z,1.57
2018-09-29T11:27:37.001Z,1.10
2018-09-29T11:30:05.722Z,1.27
2018-09-29T11:32:33.106Z,0.73
2018-09-29T11:35:00.711Z,1.20
2018-09-29T11:37:28.080Z,1.47
2018-09-29T11:39:55.522Z,1.37
2018-09-29T11:42:23.125Z,1.07
2018-09-29T11:44:50.569Z,1.50
2018-09-29T11:47:18.059Z,1.20
2018-09-29T11:49:46.362Z,1.30
2018-09-29T11:52:13.777Z,1.50
2018-09-29T11:54:41.166Z,1.10
2018-09-29T11:57:08.686Z,1.27
2018-09-29T11:59:36.168Z,1.27
2018-09-29T12:02:03.699Z,1.70
2018-09-29T12:04:31.582Z,16.97
2018-09-29T12:06:59.930Z,15.17
2018-09-29T12:09:28.198Z,20.53
2018-09-29T12:11:56.524Z,11.73
2018-09-29T12:14:24.318Z,6.70
2018-09-29T12:16:52.940Z,6.10
2018-09-29T12:19:20.705Z,6.07
2018-09-29T12:21:48.560Z,6.03
2018-09-29T12:24:16.360Z,4.87
2018-09-29T12:26:44.351Z,2.60
2018-09-29T12:29:12.583Z,2.77
2018-09-29T12:31:41.838Z,2.10
2018-09-29T12:34:09.628Z,2.03
2018-09-29T12:36:38.297Z,1.93
2018-09-29T12:39:08.168Z,1.93
2018-09-29T12:41:37.963Z,1.67
2018-09-29T12:44:06.176Z,1.17
2018-09-29T12:46:33.969Z,1.60
2018-09-29T12:49:03.015Z,1.60
2018-09-29T12:51:30.647Z,1.30
2018-09-29T12:53:58.180Z,2.23
2018-09-29T12:56:26.630Z,2.80
2018-09-29T12:58:54.699Z,10.37
2018-09-29T13:01:22.188Z,7.80
2018-09-29T13:03:50.202Z,5.43
2018-09-29T13:06:18.150Z,3.37
2018-09-29T13:08:46.132Z,2.87
2018-09-29T13:11:14.649Z,2.70
2018-09-29T13:13:42.341Z,2.20
2018-09-29T13:16:10.303Z,2.10
2018-09-29T13:18:38.536Z,1.53
2018-09-29T13:21:07.630Z,1.70
2018-09-29T13:23:35.908Z,1.60
2018-09-29T13:26:04.012Z,1.20
2018-09-29T13:28:32.173Z,1.20
2018-09-29T13:30:59.866Z,1.90
2018-09-29T13:33:27.687Z,1.43
2018-09-29T13:35:55.905Z,1.10
2018-09-29T13:38:24.251Z,1.40
2018-09-29T13:40:52.435Z,0.90
2018-09-29T13:43:20.730Z,1.57
2018-09-29T13:45:49.759Z,1.43
2018-09-29T13:48:18.220Z,1.47
2018-09-29T13:50:46.836Z,1.40
2018-09-29T13:53:15.529Z,1.50
2018-09-29T13:55:43.262Z,1.20
2018-09-29T13:58:10.979Z,1.73
2018-09-29T14:00:38.996Z,1.43
2018-09-29T14:03:06.738Z,2.13
2018-09-29T14:05:34.643Z,1.20
2018-09-29T14:08:03.676Z,1.30
2018-09-29T14:10:31.708Z,1.70
2018-09-29T14:12:59.360Z,1.20
2018-09-29T14:15:28.335Z,1.27
2018-09-29T14:17:56.118Z,1.30
2018-09-29T14:20:23.860Z,1.60
2018-09-29T14:22:51.572Z,3.90
2018-09-29T14:25:19.564Z,14.63
2018-09-29T14:27:47.137Z,12.07
2018-09-29T14:30:16.563Z,5.90
2018-09-29T14:32:44.694Z,3.73
2018-09-29T14:35:12.996Z,4.03
2018-09-29T14:37:41.834Z,2.53
2018-09-29T14:40:09.811Z,2.83
2018-09-29T14:42:37.565Z,1.80
2018-09-29T14:45:05.220Z,1.90
2018-09-29T14:47:33.397Z,2.23
2018-09-29T14:50:01.830Z,1.50
2018-09-29T14:52:29.375Z,1.10
2018-09-29T14:54:57.209Z,1.13
2018-09-29T14:57:25.061Z,1.53
2018-09-29T14:59:52.768Z,1.60
2018-09-29T15:02:20.613Z,1.43
2018-09-29T15:04:50.931Z,1.07
2018-09-29T15:07:18.690Z,1.27
2018-09-29T15:09:47.064Z,1.10
2018-09-29T15:12:14.831Z,1.00
2018-09-29T15:14:42.832Z,1.40
2018-09-29T15:17:10.736Z,1.30
2018-09-29T15:19:38.492Z,1.20
2018-09-29T15:22:07.565Z,1.00
2018-09-29T15:24:35.363Z,1.17
2018-09-29T15:27:03.151Z,1.27
2018-09-29T15:29:30.849Z,1.10
2018-09-29T15:31:58.763Z,21.80
2018-09-29T15:34:29.415Z,16.17
2018-09-29T15:36:57.564Z,13.77
2018-09-29T15:39:25.319Z,18.30
2018-09-29T15:41:52.665Z,17.10
2018-09-29T15:44:20.155Z,11.13
2018-09-29T15:46:47.585Z,8.53
2018-09-29T15:49:15.051Z,5.93
2018-09-29T15:51:42.452Z,5.07
2018-09-29T15:54:10.317Z,2.93
2018-09-29T15:56:37.763Z,2.50
2018-09-29T15:59:05.141Z,2.70
2018-09-29T16:01:33.266Z,1.97
2018-09-29T16:04:00.875Z,1.43
2018-09-29T16:06:28.258Z,1.70
2018-09-29T16:08:55.818Z,1.07
2018-09-29T16:11:24.222Z,1.43
2018-09-29T16:13:51.715Z,1.33
2018-09-29T16:16:19.209Z,1.50
2018-09-29T16:18:46.647Z,1.20
2018-09-29T16:21:14.066Z,1.27
2018-09-29T16:23:41.834Z,1.93
2018-09-29T16:26:09.289Z,1.87
2018-09-29T16:28:36.646Z,2.73
2018-09-29T16:31:04.941Z,3.27
2018-09-29T16:33:32.415Z,2.43
2018-09-29T16:35:59.767Z,2.20
2018-09-29T16:38:27.239Z,3.03
2018-09-29T16:40:55.685Z,2.20
2018-09-29T16:43:23.049Z,2.53
2018-09-29T16:45:50.578Z,2.37
2018-09-29T16:48:17.932Z,1.63
2018-09-29T16:50:45.830Z,1.53
2018-09-29T16:53:13.537Z,1.67
2018-09-29T16:55:40.881Z,2.37
2018-09-29T16:58:08.306Z,3.07
2018-09-29T17:00:35.749Z,32.90
2018-09-29T17:03:03.325Z,21.53
2018-09-29T17:05:30.784Z,13.03
2018-09-29T17:07:58.275Z,7.83
2018-09-29T17:10:25.628Z,5.10
2018-09-29T17:12:53.057Z,3.63
2018-09-29T17:15:20.616Z,4.10
2018-09-29T17:17:48.046Z,2.70
2018-09-29T17:20:15.446Z,2.27
2018-09-29T17:22:42.892Z,3.30
2018-09-29T17:25:10.351Z,2.10
2018-09-29T17:27:38.249Z,2.60
2018-09-29T17:30:05.653Z,2.87
2018-09-29T17:32:33.218Z,3.53
2018-09-29T17:35:00.592Z,3.10
2018-09-29T17:37:27.898Z,3.30
2018-09-29T17:39:55.336Z,3.57
2018-09-29T17:42:22.664Z,4.20
2018-09-29T17:44:50.098Z,2.90
2018-09-29T17:47:17.455Z,2.77
2018-09-29T17:49:44.939Z,2.93
2018-09-29T17:52:12.306Z,3.20
2018-09-29T17:54:39.682Z,2.83
2018-09-29T17:57:07.562Z,2.63
2018-09-29T17:59:35.100Z,2.75
2018-09-29T18:02:02.626Z,43.23
2018-09-29T18:04:30.094Z,28.83
2018-09-29T18:06:57.692Z,18.20
2018-09-29T18:09:25.323Z,11.87
2018-09-29T18:11:52.800Z,12.57
2018-09-29T18:14:20.437Z,10.40
2018-09-29T18:16:48.006Z,10.90
2018-09-29T18:19:15.657Z,10.50
2018-09-29T18:21:43.088Z,10.30
2018-09-29T18:24:10.656Z,10.43
2018-09-29T18:26:38.214Z,8.87
2018-09-29T18:29:05.647Z,8.87
2018-09-29T18:31:33.533Z,8.77
2018-09-29T18:34:00.914Z,7.80
2018-09-29T18:36:28.474Z,9.00
2018-09-29T18:38:56.657Z,8.33
2018-09-29T18:41:24.081Z,7.40
2018-09-29T18:43:51.693Z,7.43
2018-09-29T18:46:19.258Z,6.27
2018-09-29T18:48:46.826Z,6.83
2018-09-29T18:51:14.129Z,5.10
2018-09-29T18:53:41.794Z,5.70
2018-09-29T18:56:09.251Z,4.13
2018-09-29T18:58:37.182Z,5.07
2018-09-29T19:01:04.674Z,4.70
2018-09-29T19:03:32.200Z,4.97
2018-09-29T19:06:00.855Z,4.10
2018-09-29T19:08:30.564Z,4.27
2018-09-29T19:10:57.995Z,4.53
2018-09-29T19:13:25.408Z,5.30
2018-09-29T19:15:52.782Z,5.20
2018-09-29T19:18:20.309Z,5.07
2018-09-29T19:20:47.742Z,5.87
2018-09-29T19:23:15.416Z,5.20
2018-09-29T19:25:42.963Z,6.50
2018-09-29T19:28:10.407Z,5.90
2018-09-29T19:30:37.982Z,5.87
2018-09-29T19:33:05.372Z,6.07
2018-09-29T19:35:33.260Z,6.67
2018-09-29T19:38:00.855Z,5.80
2018-09-29T19:40:28.271Z,5.67
2018-09-29T19:42:55.689Z,5.90
2018-09-29T19:45:23.322Z,5.13
2018-09-29T19:47:50.728Z,5.50
2018-09-29T19:50:18.184Z,4.60
2018-09-29T19:52:45.779Z,4.97
2018-09-29T19:55:13.085Z,4.37
2018-09-29T19:57:40.739Z,4.67
2018-09-29T20:00:08.157Z,4.67
2018-09-29T20:02:35.702Z,4.40
2018-09-29T20:05:03.948Z,5.00
2018-09-29T20:07:31.485Z,5.30
2018-09-29T20:09:58.865Z,4.97
2018-09-29T20:12:26.976Z,4.77
2018-09-29T20:14:54.501Z,4.57
2018-09-29T20:17:21.977Z,5.40
2018-09-29T20:19:49.403Z,5.00
2018-09-29T20:22:16.720Z,5.47
2018-09-29T20:24:44.135Z,4.90
2018-09-29T20:27:11.571Z,4.97
2018-09-29T20:29:39.032Z,4.53
2018-09-29T20:32:06.751Z,5.57
2018-09-29T20:34:35.134Z,5.07
2018-09-29T20:37:02.741Z,5.00
2018-09-29T20:39:31.217Z,4.90
2018-09-29T20:41:58.595Z,4.90
2018-09-29T20:44:25.990Z,4.53
2018-09-29T20:46:53.811Z,5.63
2018-09-29T20:49:21.289Z,5.50
2018-09-29T20:51:49.158Z,5.47
2018-09-29T20:54:16.597Z,6.70
2018-09-29T20:56:44.038Z,6.10
2018-09-29T20:59:11.510Z,6.00
2018-09-29T21:01:39.051Z,5.90
2018-09-29T21:04:06.807Z,7.03
2018-09-29T21:06:34.221Z,5.67
2018-09-29T21:09:01.732Z,5.93
2018-09-29T21:11:29.640Z,5.80
2018-09-29T21:13:56.978Z,4.07
2018-09-29T21:16:24.666Z,4.40
2018-09-29T21:18:52.064Z,4.77
2018-09-29T21:21:19.530Z,5.03
2018-09-29T21:23:46.876Z,4.77
2018-09-29T21:26:14.567Z,4.43
2018-09-29T21:28:42.292Z,4.80
2018-09-29T21:31:09.651Z,4.03
2018-09-29T21:33:37.122Z,3.97
2018-09-29T21:36:04.657Z,4.70
2018-09-29T21:38:32.130Z,6.07
2018-09-29T21:40:59.528Z,4.90
2018-09-29T21:43:26.968Z,4.63
2018-09-29T21:45:54.368Z,4.60
2018-09-29T21:48:21.761Z,3.33
2018-09-29T21:50:49.189Z,3.43
2018-09-29T21:53:16.594Z,3.50
2018-09-29T21:55:44.061Z,3.40
2018-09-29T21:58:11.424Z,3.60
2018-09-29T22:00:41.751Z,3.63
2018-09-29T22:03:09.229Z,3.07
2018-09-29T22:05:36.689Z,4.10
2018-09-29T22:08:04.388Z,3.90
2018-09-29T22:10:32.903Z,3.50
2018-09-29T22:13:00.323Z,3.70
2018-09-29T22:15:27.678Z,4.10
2018-09-29T22:17:55.147Z,3.47
2018-09-29T22:20:22.533Z,3.30
2018-09-29T22:22:49.914Z,3.27
2018-09-29T22:25:17.358Z,3.47
2018-09-29T22:27:44.799Z,3.87
2018-09-29T22:30:12.771Z,3.80
2018-09-29T22:32:40.102Z,3.93
2018-09-29T22:35:07.515Z,3.97
2018-09-29T22:37:35.228Z,4.10
2018-09-29T22:40:02.665Z,3.60
2018-09-29T22:42:30.854Z,3.60
2018-09-29T22:44:58.215Z,4.40
2018-09-29T22:47:25.719Z,4.03
2018-09-29T22:49:53.144Z,4.00
2018-09-29T22:52:20.538Z,4.50
2018-09-29T22:54:47.877Z,4.13
2018-09-29T22:57:15.295Z,4.30
2018-09-29T22:59:43.777Z,5.33
2018-09-29T23:02:11.114Z,5.23
2018-09-29T23:04:38.562Z,4.47
2018-09-29T23:07:06.098Z,4.80
2018-09-29T23:09:33.501Z,5.30
2018-09-29T23:12:00.912Z,4.10
2018-09-29T23:14:28.314Z,4.83
2018-09-29T23:16:55.668Z,5.23
2018-09-29T23:19:23.085Z,4.87
2018-09-29T23:21:50.402Z,5.90
2018-09-29T23:24:17.739Z,6.70
2018-09-29T23:26:45.179Z,5.60
2018-09-29T23:29:12.563Z,6.33
2018-09-29T23:31:39.958Z,6.33
2018-09-29T23:34:07.470Z,5.80
2018-09-29T23:36:34.914Z,5.57
2018-09-29T23:39:02.915Z,5.33
2018-09-29T23:41:36.198Z,6.23
2018-09-29T23:44:03.678Z,5.80
2018-09-29T23:46:31.339Z,5.20
2018-09-29T23:48:58.960Z,5.53
2018-09-29T23:51:26.330Z,4.70
2018-09-29T23:53:53.766Z,5.07
2018-09-29T23:56:21.126Z,5.50
2018-09-29T23:58:48.434Z,4.63
